sensor_id;sensor_type;location;lat;lon;timestamp;temperature;humidity
58447;DHT22;44240;51.840;7.258;2024-02-26T00:02:07;6.90;75.10
58447;DHT22;44240;51.840;7.258;2024-02-26T00:04:34;6.90;75.10
58447;DHT22;44240;51.840;7.258;2024-02-26T00:07:01;6.90;75.20
58447;DHT22;44240;51.840;7.258;2024-02-26T00:09:28;6.90;75.20
58447;DHT22;44240;51.840;7.258;2024-02-26T00:11:55;6.90;75.20
58447;DHT22;44240;51.840;7.258;2024-02-26T00:14:22;6.90;75.30
58447;DHT22;44240;51.840;7.258;2024-02-26T00:16:48;6.90;75.30
58447;DHT22;44240;51.840;7.258;2024-02-26T00:19:15;6.90;75.30
58447;DHT22;44240;51.840;7.258;2024-02-26T00:21:42;6.80;75.40
58447;DHT22;44240;51.840;7.258;2024-02-26T00:24:09;6.80;75.40
58447;DHT22;44240;51.840;7.258;2024-02-26T00:26:36;6.80;76.50
58447;DHT22;44240;51.840;7.258;2024-02-26T00:29:03;6.80;75.50
58447;DHT22;44240;51.840;7.258;2024-02-26T00:31:30;6.80;75.60
58447;DHT22;44240;51.840;7.258;2024-02-26T00:33:57;6.80;75.70
58447;DHT22;44240;51.840;7.258;2024-02-26T00:36:24;6.80;75.80
58447;DHT22;44240;51.840;7.258;2024-02-26T00:38:51;6.80;75.90
58447;DHT22;44240;51.840;7.258;2024-02-26T00:41:18;6.80;75.90
58447;DHT22;44240;51.840;7.258;2024-02-26T00:43:45;6.80;76.00
58447;DHT22;44240;51.840;7.258;2024-02-26T00:46:12;6.80;76.00
58447;DHT22;44240;51.840;7.258;2024-02-26T00:48:39;6.90;76.10
58447;DHT22;44240;51.840;7.258;2024-02-26T00:51:06;6.90;76.10
58447;DHT22;44240;51.840;7.258;2024-02-26T00:53:34;6.90;76.20
58447;DHT22;44240;51.840;7.258;2024-02-26T00:56:01;6.90;76.20
58447;DHT22;44240;51.840;7.258;2024-02-26T00:58:28;6.90;76.30
58447;DHT22;44240;51.840;7.258;2024-02-26T01:00:55;6.90;76.30
58447;DHT22;44240;51.840;7.258;2024-02-26T01:03:22;6.90;76.40
58447;DHT22;44240;51.840;7.258;2024-02-26T01:05:49;6.90;76.50
58447;DHT22;44240;51.840;7.258;2024-02-26T01:08:16;7.00;76.50
58447;DHT22;44240;51.840;7.258;2024-02-26T01:10:43;6.90;76.40
58447;DHT22;44240;51.840;7.258;2024-02-26T01:13:10;7.00;76.50
58447;DHT22;44240;51.840;7.258;2024-02-26T01:15:37;7.00;76.50
58447;DHT22;44240;51.840;7.258;2024-02-26T01:18:04;7.00;76.50
58447;DHT22;44240;51.840;7.258;2024-02-26T01:20:31;7.00;76.50
58447;DHT22;44240;51.840;7.258;2024-02-26T01:22:57;7.00;76.50
58447;DHT22;44240;51.840;7.258;2024-02-26T01:25:24;7.00;76.50
58447;DHT22;44240;51.840;7.258;2024-02-26T01:27:51;7.00;76.50
58447;DHT22;44240;51.840;7.258;2024-02-26T01:30:18;7.10;76.50
58447;DHT22;44240;51.840;7.258;2024-02-26T01:32:45;7.10;76.40
58447;DHT22;44240;51.840;7.258;2024-02-26T01:35:12;7.10;76.40
58447;DHT22;44240;51.840;7.258;2024-02-26T01:37:39;7.10;76.30
58447;DHT22;44240;51.840;7.258;2024-02-26T01:40:07;7.10;76.20
58447;DHT22;44240;51.840;7.258;2024-02-26T01:42:34;7.10;76.20
58447;DHT22;44240;51.840;7.258;2024-02-26T01:45:01;7.20;76.20
58447;DHT22;44240;51.840;7.258;2024-02-26T01:47:28;7.20;76.20
58447;DHT22;44240;51.840;7.258;2024-02-26T01:49:55;7.20;76.00
58447;DHT22;44240;51.840;7.258;2024-02-26T01:52:23;7.20;76.10
58447;DHT22;44240;51.840;7.258;2024-02-26T01:54:50;7.20;76.00
58447;DHT22;44240;51.840;7.258;2024-02-26T01:57:17;7.20;75.90
58447;DHT22;44240;51.840;7.258;2024-02-26T01:59:44;7.20;75.80
58447;DHT22;44240;51.840;7.258;2024-02-26T02:02:11;7.20;75.80
58447;DHT22;44240;51.840;7.258;2024-02-26T02:04:39;7.30;75.70
58447;DHT22;44240;51.840;7.258;2024-02-26T02:07:06;7.30;75.70
58447;DHT22;44240;51.840;7.258;2024-02-26T02:09:33;7.30;75.60
58447;DHT22;44240;51.840;7.258;2024-02-26T02:12:00;7.30;75.50
58447;DHT22;44240;51.840;7.258;2024-02-26T02:14:27;7.30;75.50
58447;DHT22;44240;51.840;7.258;2024-02-26T02:16:54;7.30;75.50
58447;DHT22;44240;51.840;7.258;2024-02-26T02:19:21;7.40;75.60
58447;DHT22;44240;51.840;7.258;2024-02-26T02:21:48;7.40;75.50
58447;DHT22;44240;51.840;7.258;2024-02-26T02:24:15;7.40;75.50
58447;DHT22;44240;51.840;7.258;2024-02-26T02:26:42;7.40;75.40
58447;DHT22;44240;51.840;7.258;2024-02-26T02:29:10;7.40;75.30
58447;DHT22;44240;51.840;7.258;2024-02-26T02:31:37;7.40;75.20
58447;DHT22;44240;51.840;7.258;2024-02-26T02:34:04;7.40;75.20
58447;DHT22;44240;51.840;7.258;2024-02-26T02:36:31;7.40;75.10
58447;DHT22;44240;51.840;7.258;2024-02-26T02:38:58;7.40;75.10
58447;DHT22;44240;51.840;7.258;2024-02-26T02:41:25;7.50;75.00
58447;DHT22;44240;51.840;7.258;2024-02-26T02:43:54;7.40;74.80
58447;DHT22;44240;51.840;7.258;2024-02-26T02:46:20;7.50;74.90
58447;DHT22;44240;51.840;7.258;2024-02-26T02:48:47;7.50;74.90
58447;DHT22;44240;51.840;7.258;2024-02-26T02:51:14;7.50;74.80
58447;DHT22;44240;51.840;7.258;2024-02-26T02:53:41;7.50;74.80
58447;DHT22;44240;51.840;7.258;2024-02-26T02:56:08;7.50;74.80
58447;DHT22;44240;51.840;7.258;2024-02-26T02:58:35;7.50;74.80
58447;DHT22;44240;51.840;7.258;2024-02-26T03:01:02;7.50;74.90
58447;DHT22;44240;51.840;7.258;2024-02-26T03:03:29;7.50;74.90
58447;DHT22;44240;51.840;7.258;2024-02-26T03:05:56;7.50;74.90
58447;DHT22;44240;51.840;7.258;2024-02-26T03:08:23;7.50;74.90
58447;DHT22;44240;51.840;7.258;2024-02-26T03:10:50;7.50;74.90
58447;DHT22;44240;51.840;7.258;2024-02-26T03:13:17;7.60;74.90
58447;DHT22;44240;51.840;7.258;2024-02-26T03:15:44;7.60;74.80
58447;DHT22;44240;51.840;7.258;2024-02-26T03:18:11;7.60;74.80
58447;DHT22;44240;51.840;7.258;2024-02-26T03:20:38;7.60;74.90
58447;DHT22;44240;51.840;7.258;2024-02-26T03:23:05;7.50;74.80
58447;DHT22;44240;51.840;7.258;2024-02-26T03:25:32;7.60;74.90
58447;DHT22;44240;51.840;7.258;2024-02-26T03:27:58;7.60;74.80
58447;DHT22;44240;51.840;7.258;2024-02-26T03:30:25;7.60;74.70
58447;DHT22;44240;51.840;7.258;2024-02-26T03:32:52;7.60;74.70
58447;DHT22;44240;51.840;7.258;2024-02-26T03:35:19;7.60;74.70
58447;DHT22;44240;51.840;7.258;2024-02-26T03:37:46;7.60;74.70
58447;DHT22;44240;51.840;7.258;2024-02-26T03:40:14;7.60;74.70
58447;DHT22;44240;51.840;7.258;2024-02-26T03:42:41;7.60;74.70
58447;DHT22;44240;51.840;7.258;2024-02-26T03:45:08;7.60;74.90
58447;DHT22;44240;51.840;7.258;2024-02-26T03:47:38;7.60;74.90
58447;DHT22;44240;51.840;7.258;2024-02-26T03:50:08;7.60;74.80
58447;DHT22;44240;51.840;7.258;2024-02-26T03:52:35;7.60;74.80
58447;DHT22;44240;51.840;7.258;2024-02-26T03:55:02;7.60;74.90
58447;DHT22;44240;51.840;7.258;2024-02-26T03:57:30;7.70;74.90
58447;DHT22;44240;51.840;7.258;2024-02-26T03:59:57;7.70;74.90
58447;DHT22;44240;51.840;7.258;2024-02-26T04:02:23;7.70;75.00
58447;DHT22;44240;51.840;7.258;2024-02-26T04:04:52;7.70;75.00
58447;DHT22;44240;51.840;7.258;2024-02-26T04:07:19;7.70;75.10
58447;DHT22;44240;51.840;7.258;2024-02-26T04:09:45;7.70;75.10
58447;DHT22;44240;51.840;7.258;2024-02-26T04:12:12;7.70;75.20
58447;DHT22;44240;51.840;7.258;2024-02-26T04:14:39;7.70;75.30
58447;DHT22;44240;51.840;7.258;2024-02-26T04:17:06;7.70;75.40
58447;DHT22;44240;51.840;7.258;2024-02-26T04:19:33;7.70;75.50
58447;DHT22;44240;51.840;7.258;2024-02-26T04:22:00;7.70;75.60
58447;DHT22;44240;51.840;7.258;2024-02-26T04:24:27;7.70;75.80
58447;DHT22;44240;51.840;7.258;2024-02-26T04:26:54;7.70;75.90
58447;DHT22;44240;51.840;7.258;2024-02-26T04:29:21;7.60;76.00
58447;DHT22;44240;51.840;7.258;2024-02-26T04:31:47;7.60;76.10
58447;DHT22;44240;51.840;7.258;2024-02-26T04:34:14;7.60;76.20
58447;DHT22;44240;51.840;7.258;2024-02-26T04:36:42;7.70;76.40
58447;DHT22;44240;51.840;7.258;2024-02-26T04:39:09;7.60;76.40
58447;DHT22;44240;51.840;7.258;2024-02-26T04:41:36;7.60;76.70
58447;DHT22;44240;51.840;7.258;2024-02-26T04:44:04;7.60;76.90
58447;DHT22;44240;51.840;7.258;2024-02-26T04:46:31;7.60;76.80
58447;DHT22;44240;51.840;7.258;2024-02-26T04:48:57;7.60;76.80
58447;DHT22;44240;51.840;7.258;2024-02-26T04:51:25;7.60;76.80
58447;DHT22;44240;51.840;7.258;2024-02-26T04:53:52;7.60;77.00
58447;DHT22;44240;51.840;7.258;2024-02-26T04:56:21;7.60;77.20
58447;DHT22;44240;51.840;7.258;2024-02-26T04:58:48;7.60;77.30
58447;DHT22;44240;51.840;7.258;2024-02-26T05:01:15;7.60;77.40
58447;DHT22;44240;51.840;7.258;2024-02-26T05:03:43;7.50;77.40
58447;DHT22;44240;51.840;7.258;2024-02-26T05:06:10;7.60;77.60
58447;DHT22;44240;51.840;7.258;2024-02-26T05:08:38;7.60;77.70
58447;DHT22;44240;51.840;7.258;2024-02-26T05:11:05;7.50;77.70
58447;DHT22;44240;51.840;7.258;2024-02-26T05:13:34;7.50;77.90
58447;DHT22;44240;51.840;7.258;2024-02-26T05:16:01;7.50;78.00
58447;DHT22;44240;51.840;7.258;2024-02-26T05:18:28;7.50;78.10
58447;DHT22;44240;51.840;7.258;2024-02-26T05:20:55;7.50;78.20
58447;DHT22;44240;51.840;7.258;2024-02-26T05:23:22;7.50;79.30
58447;DHT22;44240;51.840;7.258;2024-02-26T05:25:49;7.50;78.40
58447;DHT22;44240;51.840;7.258;2024-02-26T05:28:16;7.50;78.40
58447;DHT22;44240;51.840;7.258;2024-02-26T05:30:45;7.50;78.50
58447;DHT22;44240;51.840;7.258;2024-02-26T05:33:12;7.40;78.50
58447;DHT22;44240;51.840;7.258;2024-02-26T05:35:43;7.40;78.60
58447;DHT22;44240;51.840;7.258;2024-02-26T05:38:11;7.40;78.60
58447;DHT22;44240;51.840;7.258;2024-02-26T05:40:38;7.40;78.50
58447;DHT22;44240;51.840;7.258;2024-02-26T05:43:05;7.40;78.60
58447;DHT22;44240;51.840;7.258;2024-02-26T05:45:32;7.40;78.60
58447;DHT22;44240;51.840;7.258;2024-02-26T05:47:59;7.40;78.70
58447;DHT22;44240;51.840;7.258;2024-02-26T05:50:26;7.40;78.80
58447;DHT22;44240;51.840;7.258;2024-02-26T05:52:53;7.40;78.90
58447;DHT22;44240;51.840;7.258;2024-02-26T05:55:20;7.40;78.90
58447;DHT22;44240;51.840;7.258;2024-02-26T05:57:47;7.40;78.90
58447;DHT22;44240;51.840;7.258;2024-02-26T06:00:14;7.40;78.90
58447;DHT22;44240;51.840;7.258;2024-02-26T06:02:41;7.40;78.90
58447;DHT22;44240;51.840;7.258;2024-02-26T06:05:08;7.40;78.90
58447;DHT22;44240;51.840;7.258;2024-02-26T06:07:36;7.40;79.00
58447;DHT22;44240;51.840;7.258;2024-02-26T06:10:03;7.40;79.00
58447;DHT22;44240;51.840;7.258;2024-02-26T06:12:31;7.40;79.00
58447;DHT22;44240;51.840;7.258;2024-02-26T06:14:59;7.40;79.00
58447;DHT22;44240;51.840;7.258;2024-02-26T06:17:28;7.40;78.90
58447;DHT22;44240;51.840;7.258;2024-02-26T06:19:55;7.40;78.90
58447;DHT22;44240;51.840;7.258;2024-02-26T06:22:22;7.40;78.90
58447;DHT22;44240;51.840;7.258;2024-02-26T06:24:49;7.40;80.00
58447;DHT22;44240;51.840;7.258;2024-02-26T06:27:15;7.40;78.90
58447;DHT22;44240;51.840;7.258;2024-02-26T06:29:42;7.40;78.80
58447;DHT22;44240;51.840;7.258;2024-02-26T06:32:09;7.40;78.80
58447;DHT22;44240;51.840;7.258;2024-02-26T06:34:36;7.40;78.70
58447;DHT22;44240;51.840;7.258;2024-02-26T06:37:05;7.40;78.60
58447;DHT22;44240;51.840;7.258;2024-02-26T06:39:32;7.40;78.50
58447;DHT22;44240;51.840;7.258;2024-02-26T06:41:59;7.50;78.60
58447;DHT22;44240;51.840;7.258;2024-02-26T06:44:29;7.50;78.50
58447;DHT22;44240;51.840;7.258;2024-02-26T06:46:59;7.50;78.50
58447;DHT22;44240;51.840;7.258;2024-02-26T06:49:26;7.50;78.50
58447;DHT22;44240;51.840;7.258;2024-02-26T06:51:53;7.50;78.50
58447;DHT22;44240;51.840;7.258;2024-02-26T06:54:20;7.50;78.50
58447;DHT22;44240;51.840;7.258;2024-02-26T06:56:47;7.50;78.40
58447;DHT22;44240;51.840;7.258;2024-02-26T06:59:14;7.50;78.40
58447;DHT22;44240;51.840;7.258;2024-02-26T07:01:41;7.50;78.40
58447;DHT22;44240;51.840;7.258;2024-02-26T07:04:08;7.50;78.20
58447;DHT22;44240;51.840;7.258;2024-02-26T07:06:37;7.50;78.30
58447;DHT22;44240;51.840;7.258;2024-02-26T07:09:04;7.40;78.10
58447;DHT22;44240;51.840;7.258;2024-02-26T07:11:31;7.50;78.10
58447;DHT22;44240;51.840;7.258;2024-02-26T07:13:58;7.50;78.10
58447;DHT22;44240;51.840;7.258;2024-02-26T07:16:25;7.50;78.00
58447;DHT22;44240;51.840;7.258;2024-02-26T07:18:53;7.50;78.00
58447;DHT22;44240;51.840;7.258;2024-02-26T07:21:20;7.60;77.90
58447;DHT22;44240;51.840;7.258;2024-02-26T07:23:47;7.50;77.70
58447;DHT22;44240;51.840;7.258;2024-02-26T07:26:14;7.60;77.60
58447;DHT22;44240;51.840;7.258;2024-02-26T07:28:41;7.60;77.60
58447;DHT22;44240;51.840;7.258;2024-02-26T07:31:08;7.60;77.50
58447;DHT22;44240;51.840;7.258;2024-02-26T07:33:35;7.60;77.50
58447;DHT22;44240;51.840;7.258;2024-02-26T07:36:02;7.60;77.40
58447;DHT22;44240;51.840;7.258;2024-02-26T07:38:29;7.70;77.40
58447;DHT22;44240;51.840;7.258;2024-02-26T07:41:08;7.70;77.50
58447;DHT22;44240;51.840;7.258;2024-02-26T07:43:35;7.70;77.40
58447;DHT22;44240;51.840;7.258;2024-02-26T07:46:02;7.70;77.40
58447;DHT22;44240;51.840;7.258;2024-02-26T07:48:29;7.70;77.40
58447;DHT22;44240;51.840;7.258;2024-02-26T07:50:56;7.80;77.50
58447;DHT22;44240;51.840;7.258;2024-02-26T07:53:26;7.80;77.50
58447;DHT22;44240;51.840;7.258;2024-02-26T07:55:52;7.70;77.50
58447;DHT22;44240;51.840;7.258;2024-02-26T07:58:19;7.80;77.50
58447;DHT22;44240;51.840;7.258;2024-02-26T08:00:46;7.80;77.50
58447;DHT22;44240;51.840;7.258;2024-02-26T08:03:13;7.80;77.50
58447;DHT22;44240;51.840;7.258;2024-02-26T08:05:42;7.80;77.40
58447;DHT22;44240;51.840;7.258;2024-02-26T08:08:10;7.80;77.50
58447;DHT22;44240;51.840;7.258;2024-02-26T08:10:37;7.80;77.40
58447;DHT22;44240;51.840;7.258;2024-02-26T08:13:04;7.90;77.40
58447;DHT22;44240;51.840;7.258;2024-02-26T08:15:35;7.90;77.40
58447;DHT22;44240;51.840;7.258;2024-02-26T08:18:02;7.90;77.30
58447;DHT22;44240;51.840;7.258;2024-02-26T08:20:31;7.90;77.40
58447;DHT22;44240;51.840;7.258;2024-02-26T08:22:58;7.90;77.30
58447;DHT22;44240;51.840;7.258;2024-02-26T08:25:25;8.00;77.20
58447;DHT22;44240;51.840;7.258;2024-02-26T08:27:52;8.00;77.10
58447;DHT22;44240;51.840;7.258;2024-02-26T08:30:19;8.00;77.20
58447;DHT22;44240;51.840;7.258;2024-02-26T08:32:47;8.00;77.20
58447;DHT22;44240;51.840;7.258;2024-02-26T08:35:18;8.00;77.00
58447;DHT22;44240;51.840;7.258;2024-02-26T08:37:46;8.00;77.10
58447;DHT22;44240;51.840;7.258;2024-02-26T08:40:14;8.10;77.20
58447;DHT22;44240;51.840;7.258;2024-02-26T08:42:41;8.10;77.10
58447;DHT22;44240;51.840;7.258;2024-02-26T08:45:08;8.20;77.20
58447;DHT22;44240;51.840;7.258;2024-02-26T08:47:35;8.20;77.20
58447;DHT22;44240;51.840;7.258;2024-02-26T08:50:04;8.20;77.20
58447;DHT22;44240;51.840;7.258;2024-02-26T08:52:31;8.30;77.20
58447;DHT22;44240;51.840;7.258;2024-02-26T08:54:57;8.30;77.00
58447;DHT22;44240;51.840;7.258;2024-02-26T08:57:25;8.30;76.80
58447;DHT22;44240;51.840;7.258;2024-02-26T08:59:54;8.30;76.70
58447;DHT22;44240;51.840;7.258;2024-02-26T09:02:21;8.40;76.60
58447;DHT22;44240;51.840;7.258;2024-02-26T09:04:47;8.40;76.50
58447;DHT22;44240;51.840;7.258;2024-02-26T09:07:14;8.40;76.40
58447;DHT22;44240;51.840;7.258;2024-02-26T09:09:41;8.50;76.50
58447;DHT22;44240;51.840;7.258;2024-02-26T09:12:08;8.50;76.30
58447;DHT22;44240;51.840;7.258;2024-02-26T09:14:35;8.50;76.20
58447;DHT22;44240;51.840;7.258;2024-02-26T09:17:02;8.50;76.10
58447;DHT22;44240;51.840;7.258;2024-02-26T09:19:30;8.50;76.00
58447;DHT22;44240;51.840;7.258;2024-02-26T09:21:57;8.50;76.00
58447;DHT22;44240;51.840;7.258;2024-02-26T09:24:25;8.60;76.00
58447;DHT22;44240;51.840;7.258;2024-02-26T09:26:52;8.60;76.00
58447;DHT22;44240;51.840;7.258;2024-02-26T09:29:19;8.60;75.80
58447;DHT22;44240;51.840;7.258;2024-02-26T09:31:46;8.70;75.60
58447;DHT22;44240;51.840;7.258;2024-02-26T09:34:15;8.70;75.60
58447;DHT22;44240;51.840;7.258;2024-02-26T09:36:43;8.70;75.30
58447;DHT22;44240;51.840;7.258;2024-02-26T09:39:10;8.70;75.20
58447;DHT22;44240;51.840;7.258;2024-02-26T09:41:39;8.70;75.20
58447;DHT22;44240;51.840;7.258;2024-02-26T09:44:06;8.70;75.10
58447;DHT22;44240;51.840;7.258;2024-02-26T09:46:33;8.80;75.20
58447;DHT22;44240;51.840;7.258;2024-02-26T09:49:01;8.80;74.90
58447;DHT22;44240;51.840;7.258;2024-02-26T09:51:28;8.90;75.00
58447;DHT22;44240;51.840;7.258;2024-02-26T09:53:56;8.90;74.80
58447;DHT22;44240;51.840;7.258;2024-02-26T09:56:26;8.90;74.60
58447;DHT22;44240;51.840;7.258;2024-02-26T09:58:54;8.90;74.50
58447;DHT22;44240;51.840;7.258;2024-02-26T10:01:22;8.90;74.40
58447;DHT22;44240;51.840;7.258;2024-02-26T10:03:55;8.90;74.20
58447;DHT22;44240;51.840;7.258;2024-02-26T10:06:26;8.90;73.90
58447;DHT22;44240;51.840;7.258;2024-02-26T10:08:54;8.90;73.70
58447;DHT22;44240;51.840;7.258;2024-02-26T10:11:22;8.90;73.70
58447;DHT22;44240;51.840;7.258;2024-02-26T10:13:49;8.90;73.80
58447;DHT22;44240;51.840;7.258;2024-02-26T10:16:16;8.90;73.80
58447;DHT22;44240;51.840;7.258;2024-02-26T10:18:50;8.90;73.80
58447;DHT22;44240;51.840;7.258;2024-02-26T10:21:26;8.90;73.70
58447;DHT22;44240;51.840;7.258;2024-02-26T10:23:53;8.90;73.50
58447;DHT22;44240;51.840;7.258;2024-02-26T10:26:21;8.90;73.50
58447;DHT22;44240;51.840;7.258;2024-02-26T10:28:48;8.90;73.40
58447;DHT22;44240;51.840;7.258;2024-02-26T10:31:20;8.90;73.10
58447;DHT22;44240;51.840;7.258;2024-02-26T10:33:48;8.90;72.90
58447;DHT22;44240;51.840;7.258;2024-02-26T10:36:15;8.90;72.90
58447;DHT22;44240;51.840;7.258;2024-02-26T10:38:42;8.90;73.00
58447;DHT22;44240;51.840;7.258;2024-02-26T10:41:13;8.80;73.10
58447;DHT22;44240;51.840;7.258;2024-02-26T10:43:43;8.80;73.30
58447;DHT22;44240;51.840;7.258;2024-02-26T10:46:11;8.90;73.00
58447;DHT22;44240;51.840;7.258;2024-02-26T10:48:38;8.90;73.00
58447;DHT22;44240;51.840;7.258;2024-02-26T10:51:06;8.80;73.10
58447;DHT22;44240;51.840;7.258;2024-02-26T10:53:36;8.80;73.10
58447;DHT22;44240;51.840;7.258;2024-02-26T10:56:04;8.80;73.20
58447;DHT22;44240;51.840;7.258;2024-02-26T10:58:34;8.80;73.40
58447;DHT22;44240;51.840;7.258;2024-02-26T11:01:03;8.80;73.30
58447;DHT22;44240;51.840;7.258;2024-02-26T11:03:31;8.80;73.20
58447;DHT22;44240;51.840;7.258;2024-02-26T11:06:02;8.80;73.20
58447;DHT22;44240;51.840;7.258;2024-02-26T11:08:30;8.80;73.20
58447;DHT22;44240;51.840;7.258;2024-02-26T11:10:59;8.80;73.40
58447;DHT22;44240;51.840;7.258;2024-02-26T11:13:28;8.80;73.40
58447;DHT22;44240;51.840;7.258;2024-02-26T11:16:01;8.80;73.50
58447;DHT22;44240;51.840;7.258;2024-02-26T11:18:28;8.80;73.60
58447;DHT22;44240;51.840;7.258;2024-02-26T11:20:56;8.80;73.70
58447;DHT22;44240;51.840;7.258;2024-02-26T11:23:24;8.80;74.00
58447;DHT22;44240;51.840;7.258;2024-02-26T11:25:52;8.80;74.10
58447;DHT22;44240;51.840;7.258;2024-02-26T11:28:21;8.80;74.20
58447;DHT22;44240;51.840;7.258;2024-02-26T11:30:49;8.80;74.30
58447;DHT22;44240;51.840;7.258;2024-02-26T11:33:18;8.80;74.40
58447;DHT22;44240;51.840;7.258;2024-02-26T11:35:46;8.80;74.30
58447;DHT22;44240;51.840;7.258;2024-02-26T11:38:25;8.80;74.30
58447;DHT22;44240;51.840;7.258;2024-02-26T11:40:53;8.70;74.40
58447;DHT22;44240;51.840;7.258;2024-02-26T11:43:49;8.80;74.50
58447;DHT22;44240;51.840;7.258;2024-02-26T11:48:58;8.80;74.50
58447;DHT22;44240;51.840;7.258;2024-02-26T11:51:34;8.80;74.40
58447;DHT22;44240;51.840;7.258;2024-02-26T11:54:01;8.80;74.40
58447;DHT22;44240;51.840;7.258;2024-02-26T11:56:28;8.80;74.40
58447;DHT22;44240;51.840;7.258;2024-02-26T11:59:11;8.80;74.60
58447;DHT22;44240;51.840;7.258;2024-02-26T12:01:48;8.90;74.70
58447;DHT22;44240;51.840;7.258;2024-02-26T12:04:21;8.90;74.60
58447;DHT22;44240;51.840;7.258;2024-02-26T12:07:02;8.90;74.70
58447;DHT22;44240;51.840;7.258;2024-02-26T12:09:40;8.80;74.70
58447;DHT22;44240;51.840;7.258;2024-02-26T12:12:13;8.90;74.80
58447;DHT22;44240;51.840;7.258;2024-02-26T12:14:52;8.90;74.70
58447;DHT22;44240;51.840;7.258;2024-02-26T12:17:21;8.90;74.80
58447;DHT22;44240;51.840;7.258;2024-02-26T12:19:48;8.90;74.70
58447;DHT22;44240;51.840;7.258;2024-02-26T12:22:15;8.80;74.70
58447;DHT22;44240;51.840;7.258;2024-02-26T12:24:43;8.90;74.70
58447;DHT22;44240;51.840;7.258;2024-02-26T12:27:09;8.90;74.70
58447;DHT22;44240;51.840;7.258;2024-02-26T12:29:36;8.90;74.80
58447;DHT22;44240;51.840;7.258;2024-02-26T12:32:04;8.90;74.90
58447;DHT22;44240;51.840;7.258;2024-02-26T12:34:34;8.90;74.80
58447;DHT22;44240;51.840;7.258;2024-02-26T12:37:01;8.90;74.80
58447;DHT22;44240;51.840;7.258;2024-02-26T12:39:28;8.90;74.70
58447;DHT22;44240;51.840;7.258;2024-02-26T12:41:58;8.90;74.80
58447;DHT22;44240;51.840;7.258;2024-02-26T12:44:26;9.00;75.00
58447;DHT22;44240;51.840;7.258;2024-02-26T12:47:03;9.00;75.10
58447;DHT22;44240;51.840;7.258;2024-02-26T12:49:31;9.00;75.10
58447;DHT22;44240;51.840;7.258;2024-02-26T12:51:59;9.00;75.10
58447;DHT22;44240;51.840;7.258;2024-02-26T12:54:33;9.00;75.10
58447;DHT22;44240;51.840;7.258;2024-02-26T12:57:01;9.00;75.10
58447;DHT22;44240;51.840;7.258;2024-02-26T12:59:30;9.00;75.30
58447;DHT22;44240;51.840;7.258;2024-02-26T13:01:57;9.00;75.50
58447;DHT22;44240;51.840;7.258;2024-02-26T13:04:26;9.00;75.60
58447;DHT22;44240;51.840;7.258;2024-02-26T13:06:55;9.10;75.70
58447;DHT22;44240;51.840;7.258;2024-02-26T13:09:22;9.10;75.70
58447;DHT22;44240;51.840;7.258;2024-02-26T13:11:54;9.10;75.80
58447;DHT22;44240;51.840;7.258;2024-02-26T13:14:21;9.10;75.80
58447;DHT22;44240;51.840;7.258;2024-02-26T13:16:55;9.10;75.70
58447;DHT22;44240;51.840;7.258;2024-02-26T13:19:23;9.10;75.70
58447;DHT22;44240;51.840;7.258;2024-02-26T13:21:50;9.10;75.70
58447;DHT22;44240;51.840;7.258;2024-02-26T13:24:19;9.10;75.80
58447;DHT22;44240;51.840;7.258;2024-02-26T13:26:46;9.20;75.60
58447;DHT22;44240;51.840;7.258;2024-02-26T13:29:19;9.10;75.60
58447;DHT22;44240;51.840;7.258;2024-02-26T13:31:46;9.10;75.60
58447;DHT22;44240;51.840;7.258;2024-02-26T13:34:26;9.10;75.60
58447;DHT22;44240;51.840;7.258;2024-02-26T13:36:54;9.10;75.40
58447;DHT22;44240;51.840;7.258;2024-02-26T13:39:26;9.10;75.30
58447;DHT22;44240;51.840;7.258;2024-02-26T13:41:54;9.10;75.40
58447;DHT22;44240;51.840;7.258;2024-02-26T13:44:21;9.10;75.30
58447;DHT22;44240;51.840;7.258;2024-02-26T13:46:49;9.10;75.50
58447;DHT22;44240;51.840;7.258;2024-02-26T13:49:18;9.10;75.60
58447;DHT22;44240;51.840;7.258;2024-02-26T13:51:46;9.00;75.50
58447;DHT22;44240;51.840;7.258;2024-02-26T13:54:12;9.10;75.50
58447;DHT22;44240;51.840;7.258;2024-02-26T13:56:41;9.10;75.60
58447;DHT22;44240;51.840;7.258;2024-02-26T13:59:12;9.10;75.60
58447;DHT22;44240;51.840;7.258;2024-02-26T14:01:38;9.10;75.50
58447;DHT22;44240;51.840;7.258;2024-02-26T14:04:05;9.10;75.50
58447;DHT22;44240;51.840;7.258;2024-02-26T14:06:33;9.10;75.50
58447;DHT22;44240;51.840;7.258;2024-02-26T14:09:00;9.10;75.50
58447;DHT22;44240;51.840;7.258;2024-02-26T14:11:27;9.10;75.50
58447;DHT22;44240;51.840;7.258;2024-02-26T14:13:56;9.10;75.40
58447;DHT22;44240;51.840;7.258;2024-02-26T14:16:22;9.10;75.40
58447;DHT22;44240;51.840;7.258;2024-02-26T14:18:49;9.10;75.50
58447;DHT22;44240;51.840;7.258;2024-02-26T14:21:16;9.10;76.50
58447;DHT22;44240;51.840;7.258;2024-02-26T14:23:43;9.10;75.50
58447;DHT22;44240;51.840;7.258;2024-02-26T14:26:11;9.10;75.40
58447;DHT22;44240;51.840;7.258;2024-02-26T14:28:38;9.20;75.50
58447;DHT22;44240;51.840;7.258;2024-02-26T14:31:06;9.10;75.60
58447;DHT22;44240;51.840;7.258;2024-02-26T14:33:39;9.20;75.80
58447;DHT22;44240;51.840;7.258;2024-02-26T14:36:09;9.10;75.70
58447;DHT22;44240;51.840;7.258;2024-02-26T14:38:36;9.20;75.80
58447;DHT22;44240;51.840;7.258;2024-02-26T14:41:03;9.20;75.80
58447;DHT22;44240;51.840;7.258;2024-02-26T14:43:30;9.20;75.80
58447;DHT22;44240;51.840;7.258;2024-02-26T14:45:58;9.20;75.80
58447;DHT22;44240;51.840;7.258;2024-02-26T14:48:28;9.20;75.80
58447;DHT22;44240;51.840;7.258;2024-02-26T14:50:56;9.20;75.80
58447;DHT22;44240;51.840;7.258;2024-02-26T14:53:23;9.20;75.80
58447;DHT22;44240;51.840;7.258;2024-02-26T14:55:49;9.20;75.80
58447;DHT22;44240;51.840;7.258;2024-02-26T14:58:16;9.20;75.80
58447;DHT22;44240;51.840;7.258;2024-02-26T15:00:43;9.20;75.80
58447;DHT22;44240;51.840;7.258;2024-02-26T15:03:10;9.20;75.80
58447;DHT22;44240;51.840;7.258;2024-02-26T15:05:37;9.20;75.80
58447;DHT22;44240;51.840;7.258;2024-02-26T15:08:04;9.20;75.70
58447;DHT22;44240;51.840;7.258;2024-02-26T15:10:32;9.20;75.80
58447;DHT22;44240;51.840;7.258;2024-02-26T15:12:59;9.20;75.70
58447;DHT22;44240;51.840;7.258;2024-02-26T15:15:26;9.20;75.60
58447;DHT22;44240;51.840;7.258;2024-02-26T15:17:53;9.20;75.70
58447;DHT22;44240;51.840;7.258;2024-02-26T15:20:22;9.20;75.70
58447;DHT22;44240;51.840;7.258;2024-02-26T15:22:48;9.20;75.80
58447;DHT22;44240;51.840;7.258;2024-02-26T15:25:15;9.10;75.80
58447;DHT22;44240;51.840;7.258;2024-02-26T15:27:43;9.10;75.90
58447;DHT22;44240;51.840;7.258;2024-02-26T15:30:10;9.10;76.90
58447;DHT22;44240;51.840;7.258;2024-02-26T15:32:37;9.10;76.00
58447;DHT22;44240;51.840;7.258;2024-02-26T15:35:04;9.10;76.00
58447;DHT22;44240;51.840;7.258;2024-02-26T15:37:32;9.10;76.10
58447;DHT22;44240;51.840;7.258;2024-02-26T15:39:58;9.10;76.20
58447;DHT22;44240;51.840;7.258;2024-02-26T15:42:25;9.10;76.20
58447;DHT22;44240;51.840;7.258;2024-02-26T15:44:52;9.00;76.10
58447;DHT22;44240;51.840;7.258;2024-02-26T15:47:19;9.00;76.00
58447;DHT22;44240;51.840;7.258;2024-02-26T15:49:46;9.00;77.20
58447;DHT22;44240;51.840;7.258;2024-02-26T15:52:13;9.00;76.30